Terminal Aerodrome Forecast
Issued by NWS Sioux Falls, SD

Home | Current Version | Previous Version | Graphics & Text | Print | Product List | Glossary Off
Versions: 1 2 3 4 5 6 7 8 9 10 11 12 13 14 15 16 17 18 19 20

729
FTUS43 KFSD 250707 AAA
TAFFSD
TAF AMD
KFSD 250707Z 2507/2606 03010KT 6SM BR OVC005
     FM251300 06010KT P6SM OVC008
     FM251700 05011KT P6SM OVC010
     FM251900 06011KT P6SM BKN015
     FM260200 06006KT P6SM OVC010=

USA.gov is the U.S. government's official web portal to all federal, state and local government web resources and services.